YMA7561 YPKA-YBRM
Flight info
| Callsign | YMA7561 |
|---|---|
| Flight time | 0h 55m |
| Altitude | 31000 |
| Route | KA J93 BRM |
| Aircraft | A20N/M-SDE2E3FGHIRWXY/LB1 |
Departure
| Time | 2026-04-18 08:13 |
|---|---|
| Airport | Karratha Airport (YPKA) |
Arrival
| Time | 2026-04-18 09:08 |
|---|---|
| Airport | Broome International Airport (YBRM) |
| Time | Latitude | Longitude | Altitude | Speed | Heading |
|---|---|---|---|---|---|
| 2026-04-18 07:56 | -20.70954 | 116.76959 | 29 ft | 0 kts | 46° |
| 2026-04-18 08:08 | -20.70963 | 116.77005 | 29 ft | 5 kts | 159° |
| 2026-04-18 08:09 | -20.70964 | 116.77005 | 29 ft | 0 kts | 161° |
| 2026-04-18 08:10 | -20.70978 | 116.77010 | 30 ft | 5 kts | 161° |
| 2026-04-18 08:11 | -20.71038 | 116.77031 | 30 ft | 12 kts | 161° |
| 2026-04-18 08:11 | -20.71140 | 116.77032 | 32 ft | 17 kts | 233° |
| 2026-04-18 08:11 | -20.71168 | 116.76891 | 33 ft | 21 kts | 263° |
| 2026-04-18 08:11 | -20.71185 | 116.76718 | 33 ft | 25 kts | 263° |
| 2026-04-18 08:12 | -20.71214 | 116.76524 | 33 ft | 25 kts | 245° |
| 2026-04-18 08:12 | -20.71307 | 116.76479 | 33 ft | 16 kts | 176° |
| 2026-04-18 08:12 | -20.71393 | 116.76530 | 34 ft | 13 kts | 86° |
| 2026-04-18 08:12 | -20.71343 | 116.76869 | 33 ft | 88 kts | 82° |
| 2026-04-18 08:13 | -20.71263 | 116.77790 | 27 ft | 157 kts | 82° |
| 2026-04-18 08:13 | -20.71153 | 116.79038 | 454 ft | 175 kts | 82° |
| 2026-04-18 08:13 | -20.71063 | 116.80304 | 1322 ft | 171 kts | 83° |
| 2026-04-18 08:13 | -20.70949 | 116.81467 | 2321 ft | 156 kts | 77° |
| 2026-04-18 08:14 | -20.70720 | 116.82630 | 2920 ft | 171 kts | 75° |
| 2026-04-18 08:14 | -20.70439 | 116.83909 | 3572 ft | 186 kts | 75° |
| 2026-04-18 08:14 | -20.70109 | 116.85323 | 4135 ft | 211 kts | 75° |
| 2026-04-18 08:14 | -20.69780 | 116.86932 | 4802 ft | 231 kts | 78° |
| 2026-04-18 08:15 | -20.69470 | 116.88672 | 5561 ft | 248 kts | 79° |
| 2026-04-18 08:15 | -20.69143 | 116.90554 | 6308 ft | 267 kts | 79° |
| 2026-04-18 08:15 | -20.68798 | 116.92533 | 7229 ft | 278 kts | 79° |
| 2026-04-18 08:15 | -20.68444 | 116.94551 | 8298 ft | 282 kts | 79° |
| 2026-04-18 08:16 | -20.68073 | 116.96652 | 9397 ft | 286 kts | 79° |
| 2026-04-18 08:16 | -20.67706 | 116.98737 | 10396 ft | 291 kts | 79° |
| 2026-04-18 08:16 | -20.67323 | 117.00914 | 11104 ft | 307 kts | 79° |
| 2026-04-18 08:16 | -20.66910 | 117.03239 | 11670 ft | 326 kts | 79° |
| 2026-04-18 08:17 | -20.66468 | 117.05714 | 12165 ft | 346 kts | 79° |
| 2026-04-18 08:17 | -20.66006 | 117.08295 | 12620 ft | 365 kts | 78° |
| 2026-04-18 08:17 | -20.65523 | 117.11001 | 13173 ft | 379 kts | 78° |
| 2026-04-18 08:17 | -20.65023 | 117.13791 | 13883 ft | 386 kts | 78° |
| 2026-04-18 08:18 | -20.64518 | 117.16615 | 14616 ft | 392 kts | 78° |
| 2026-04-18 08:18 | -20.64003 | 117.19493 | 15340 ft | 398 kts | 78° |
| 2026-04-18 08:18 | -20.63479 | 117.22418 | 16036 ft | 404 kts | 78° |
| 2026-04-18 08:18 | -20.62948 | 117.25380 | 16716 ft | 410 kts | 78° |
| 2026-04-18 08:19 | -20.62405 | 117.28403 | 17396 ft | 416 kts | 78° |
| 2026-04-18 08:19 | -20.61855 | 117.31467 | 18042 ft | 421 kts | 78° |
| 2026-04-18 08:19 | -20.61298 | 117.34564 | 18676 ft | 427 kts | 78° |
| 2026-04-18 08:19 | -20.60736 | 117.37683 | 19307 ft | 432 kts | 78° |
| 2026-04-18 08:20 | -20.60166 | 117.40849 | 19935 ft | 436 kts | 78° |
| 2026-04-18 08:20 | -20.59588 | 117.44047 | 20552 ft | 441 kts | 78° |
| 2026-04-18 08:20 | -20.59004 | 117.47288 | 21128 ft | 446 kts | 78° |
| 2026-04-18 08:20 | -20.58414 | 117.50551 | 21696 ft | 451 kts | 78° |
| 2026-04-18 08:21 | -20.57817 | 117.53848 | 22257 ft | 455 kts | 78° |
| 2026-04-18 08:21 | -20.57209 | 117.57203 | 22826 ft | 460 kts | 78° |
| 2026-04-18 08:21 | -20.56599 | 117.60559 | 23389 ft | 464 kts | 78° |
| 2026-04-18 08:21 | -20.55983 | 117.63954 | 23939 ft | 468 kts | 78° |
| 2026-04-18 08:22 | -20.55359 | 117.67384 | 24458 ft | 472 kts | 77° |
| 2026-04-18 08:22 | -20.54730 | 117.70841 | 24970 ft | 475 kts | 77° |
| 2026-04-18 08:22 | -20.54099 | 117.74300 | 25462 ft | 479 kts | 77° |
| 2026-04-18 08:22 | -20.53461 | 117.77794 | 25932 ft | 482 kts | 77° |
| 2026-04-18 08:23 | -20.52819 | 117.81307 | 26390 ft | 486 kts | 77° |
| 2026-04-18 08:23 | -20.52173 | 117.84845 | 26982 ft | 485 kts | 77° |
| 2026-04-18 08:23 | -20.51531 | 117.88356 | 27673 ft | 483 kts | 77° |
| 2026-04-18 08:23 | -20.50889 | 117.91863 | 28326 ft | 481 kts | 77° |
| 2026-04-18 08:24 | -20.50250 | 117.95351 | 28959 ft | 480 kts | 77° |
| 2026-04-18 08:24 | -20.49607 | 117.98852 | 29592 ft | 480 kts | 77° |
| 2026-04-18 08:24 | -20.48966 | 118.02334 | 30135 ft | 482 kts | 77° |
| 2026-04-18 08:24 | -20.48317 | 118.05852 | 30634 ft | 484 kts | 77° |
| 2026-04-18 08:25 | -20.47666 | 118.09381 | 30878 ft | 486 kts | 77° |
| 2026-04-18 08:25 | -20.46359 | 118.16457 | 30882 ft | 486 kts | 77° |
| 2026-04-18 08:26 | -20.45054 | 118.23515 | 30881 ft | 486 kts | 77° |
| 2026-04-18 08:26 | -20.43743 | 118.30585 | 30881 ft | 486 kts | 77° |
| 2026-04-18 08:27 | -20.42432 | 118.37650 | 30880 ft | 486 kts | 77° |
| 2026-04-18 08:27 | -20.41119 | 118.44704 | 30880 ft | 485 kts | 77° |
| 2026-04-18 08:28 | -20.39794 | 118.51805 | 30879 ft | 485 kts | 77° |
| 2026-04-18 08:28 | -20.38178 | 118.58925 | 30880 ft | 483 kts | 69° |
| 2026-04-18 08:29 | -20.35475 | 118.65536 | 30879 ft | 479 kts | 58° |
| 2026-04-18 08:29 | -20.31851 | 118.71464 | 30878 ft | 475 kts | 51° |
| 2026-04-18 08:30 | -20.28025 | 118.77211 | 30876 ft | 475 kts | 51° |
| 2026-04-18 08:30 | -20.24204 | 118.82975 | 30878 ft | 474 kts | 51° |
| 2026-04-18 08:31 | -20.20416 | 118.88712 | 30878 ft | 474 kts | 51° |
| 2026-04-18 08:31 | -20.16630 | 118.94456 | 30884 ft | 474 kts | 51° |
| 2026-04-18 08:32 | -20.12847 | 119.00192 | 30893 ft | 475 kts | 51° |
| 2026-04-18 08:32 | -20.09056 | 119.05937 | 30899 ft | 474 kts | 51° |
| 2026-04-18 08:33 | -20.05261 | 119.11682 | 30895 ft | 474 kts | 51° |
| 2026-04-18 08:33 | -20.01459 | 119.17432 | 30899 ft | 473 kts | 51° |
| 2026-04-18 08:34 | -19.97659 | 119.23172 | 30897 ft | 472 kts | 51° |
| 2026-04-18 08:34 | -19.93799 | 119.28990 | 30899 ft | 493 kts | 51° |
| 2026-04-18 08:35 | -19.89815 | 119.34998 | 30891 ft | 499 kts | 51° |
| 2026-04-18 08:35 | -19.85818 | 119.41020 | 30884 ft | 499 kts | 51° |
| 2026-04-18 08:36 | -19.81822 | 119.47034 | 30878 ft | 497 kts | 51° |
| 2026-04-18 08:36 | -19.77726 | 119.53192 | 30885 ft | 495 kts | 52° |
| 2026-04-18 08:37 | -19.73744 | 119.59172 | 30887 ft | 495 kts | 52° |
| 2026-04-18 08:37 | -19.69768 | 119.65139 | 30880 ft | 494 kts | 51° |
| 2026-04-18 08:38 | -19.65800 | 119.71087 | 30883 ft | 493 kts | 51° |
| 2026-04-18 08:38 | -19.61836 | 119.77024 | 30881 ft | 493 kts | 51° |
| 2026-04-18 08:39 | -19.57857 | 119.82977 | 30882 ft | 493 kts | 51° |
| 2026-04-18 08:39 | -19.53878 | 119.88922 | 30882 ft | 492 kts | 51° |
| 2026-04-18 08:40 | -19.49909 | 119.94846 | 30884 ft | 492 kts | 52° |
| 2026-04-18 08:40 | -19.45929 | 120.00785 | 30882 ft | 492 kts | 52° |
| 2026-04-18 08:41 | -19.41950 | 120.06718 | 30881 ft | 492 kts | 52° |
| 2026-04-18 08:41 | -19.37992 | 120.12612 | 30879 ft | 491 kts | 52° |
| 2026-04-18 08:42 | -19.34024 | 120.18513 | 30878 ft | 491 kts | 52° |
| 2026-04-18 08:42 | -19.30059 | 120.24408 | 30876 ft | 491 kts | 52° |
| 2026-04-18 08:43 | -19.26087 | 120.30310 | 30875 ft | 491 kts | 52° |
| 2026-04-18 08:43 | -19.22124 | 120.36201 | 30874 ft | 491 kts | 52° |
| 2026-04-18 08:44 | -19.18158 | 120.42097 | 30871 ft | 490 kts | 53° |
| 2026-04-18 08:44 | -19.14566 | 120.48259 | 30873 ft | 492 kts | 58° |
| 2026-04-18 08:45 | -19.11253 | 120.54623 | 30870 ft | 492 kts | 59° |
| 2026-04-18 08:45 | -19.07956 | 120.60990 | 30869 ft | 492 kts | 59° |
| 2026-04-18 08:46 | -19.04645 | 120.67363 | 30867 ft | 492 kts | 59° |
| 2026-04-18 08:46 | -19.01345 | 120.73707 | 30867 ft | 492 kts | 58° |
| 2026-04-18 08:47 | -18.98037 | 120.80056 | 30863 ft | 491 kts | 58° |
| 2026-04-18 08:47 | -18.94736 | 120.86382 | 30864 ft | 491 kts | 58° |
| 2026-04-18 08:48 | -18.91428 | 120.92714 | 30865 ft | 491 kts | 58° |
| 2026-04-18 08:48 | -18.88119 | 120.99039 | 30867 ft | 490 kts | 59° |
| 2026-04-18 08:49 | -18.84817 | 121.05350 | 30872 ft | 490 kts | 59° |
| 2026-04-18 08:49 | -18.81511 | 121.11661 | 30877 ft | 490 kts | 59° |
| 2026-04-18 08:50 | -18.78207 | 121.17962 | 30878 ft | 489 kts | 58° |
| 2026-04-18 08:50 | -18.74911 | 121.24239 | 30877 ft | 489 kts | 59° |
| 2026-04-18 08:51 | -18.71609 | 121.30520 | 30877 ft | 489 kts | 59° |
| 2026-04-18 08:51 | -18.68318 | 121.36778 | 30575 ft | 482 kts | 59° |
| 2026-04-18 08:51 | -18.66699 | 121.39855 | 29632 ft | 482 kts | 59° |
| 2026-04-18 08:52 | -18.65069 | 121.42948 | 28291 ft | 490 kts | 59° |
| 2026-04-18 08:52 | -18.63400 | 121.46106 | 26886 ft | 496 kts | 59° |
| 2026-04-18 08:52 | -18.61712 | 121.49300 | 25498 ft | 501 kts | 59° |
| 2026-04-18 08:52 | -18.60013 | 121.52513 | 24097 ft | 505 kts | 60° |
| 2026-04-18 08:53 | -18.58301 | 121.55753 | 23002 ft | 507 kts | 60° |
| 2026-04-18 08:53 | -18.56587 | 121.58997 | 22289 ft | 506 kts | 60° |
| 2026-04-18 08:53 | -18.54882 | 121.62231 | 21562 ft | 502 kts | 60° |
| 2026-04-18 08:53 | -18.53195 | 121.65429 | 20843 ft | 496 kts | 60° |
| 2026-04-18 08:54 | -18.51532 | 121.68579 | 20155 ft | 487 kts | 60° |
| 2026-04-18 08:54 | -18.49907 | 121.71652 | 19480 ft | 474 kts | 60° |
| 2026-04-18 08:54 | -18.48305 | 121.74679 | 18868 ft | 461 kts | 61° |
| 2026-04-18 08:54 | -18.46761 | 121.77596 | 18253 ft | 450 kts | 61° |
| 2026-04-18 08:55 | -18.45263 | 121.80424 | 17688 ft | 439 kts | 61° |
| 2026-04-18 08:55 | -18.43790 | 121.83205 | 17041 ft | 430 kts | 61° |
| 2026-04-18 08:55 | -18.42351 | 121.85923 | 16421 ft | 422 kts | 61° |
| 2026-04-18 08:55 | -18.40936 | 121.88595 | 15809 ft | 415 kts | 61° |
| 2026-04-18 08:56 | -18.39547 | 121.91218 | 15189 ft | 407 kts | 60° |
| 2026-04-18 08:56 | -18.38177 | 121.93800 | 14535 ft | 402 kts | 60° |
| 2026-04-18 08:56 | -18.36827 | 121.96343 | 13889 ft | 396 kts | 60° |
| 2026-04-18 08:56 | -18.35494 | 121.98851 | 13247 ft | 390 kts | 60° |
| 2026-04-18 08:57 | -18.32876 | 122.03776 | 11855 ft | 383 kts | 60° |
| 2026-04-18 08:57 | -18.31549 | 122.06269 | 11258 ft | 375 kts | 60° |
| 2026-04-18 08:57 | -18.30292 | 122.08632 | 10852 ft | 362 kts | 60° |
| 2026-04-18 08:58 | -18.29082 | 122.10907 | 10599 ft | 347 kts | 60° |
| 2026-04-18 08:58 | -18.27921 | 122.13091 | 10382 ft | 332 kts | 60° |
| 2026-04-18 08:58 | -18.26818 | 122.15166 | 10176 ft | 318 kts | 60° |
| 2026-04-18 08:58 | -18.25751 | 122.17172 | 9984 ft | 305 kts | 60° |
| 2026-04-18 08:59 | -18.24726 | 122.19095 | 9700 ft | 297 kts | 60° |
| 2026-04-18 08:59 | -18.23718 | 122.20984 | 9252 ft | 295 kts | 60° |
| 2026-04-18 08:59 | -18.22727 | 122.22840 | 8891 ft | 290 kts | 61° |
| 2026-04-18 08:59 | -18.21647 | 122.24610 | 8437 ft | 289 kts | 47° |
| 2026-04-18 09:00 | -18.19953 | 122.25710 | 7932 ft | 292 kts | 18° |
| 2026-04-18 09:00 | -18.17909 | 122.25812 | 7486 ft | 294 kts | 350° |
| 2026-04-18 09:00 | -18.15965 | 122.25118 | 7054 ft | 295 kts | 341° |
| 2026-04-18 09:00 | -18.14048 | 122.24300 | 6554 ft | 296 kts | 338° |
| 2026-04-18 09:01 | -18.12126 | 122.23298 | 6097 ft | 295 kts | 333° |
| 2026-04-18 09:01 | -18.10377 | 122.22158 | 5684 ft | 294 kts | 327° |
| 2026-04-18 09:01 | -18.08744 | 122.20854 | 5294 ft | 292 kts | 322° |
| 2026-04-18 09:01 | -18.07167 | 122.19320 | 4883 ft | 290 kts | 316° |
| 2026-04-18 09:02 | -18.05735 | 122.17611 | 4776 ft | 275 kts | 310° |
| 2026-04-18 09:02 | -18.04592 | 122.15966 | 4720 ft | 260 kts | 305° |
| 2026-04-18 09:02 | -18.03653 | 122.14338 | 4675 ft | 246 kts | 300° |
| 2026-04-18 09:02 | -18.02880 | 122.12721 | 4640 ft | 232 kts | 295° |
| 2026-04-18 09:03 | -18.02268 | 122.11153 | 4616 ft | 221 kts | 290° |
| 2026-04-18 09:03 | -18.01756 | 122.09579 | 4602 ft | 222 kts | 290° |
| 2026-04-18 09:03 | -18.01091 | 122.08074 | 4415 ft | 224 kts | 304° |
| 2026-04-18 09:03 | -18.00059 | 122.06831 | 4114 ft | 223 kts | 323° |
| 2026-04-18 09:04 | -17.98732 | 122.06010 | 3814 ft | 221 kts | 342° |
| 2026-04-18 09:04 | -17.97250 | 122.05664 | 3531 ft | 217 kts | 0° |
| 2026-04-18 09:04 | -17.95760 | 122.05801 | 3259 ft | 213 kts | 18° |
| 2026-04-18 09:04 | -17.94403 | 122.06376 | 2995 ft | 209 kts | 34° |
| 2026-04-18 09:05 | -17.93261 | 122.07333 | 2720 ft | 206 kts | 50° |
| 2026-04-18 09:05 | -17.92407 | 122.08642 | 2395 ft | 206 kts | 66° |
| 2026-04-18 09:05 | -17.91971 | 122.10059 | 2141 ft | 203 kts | 80° |
| 2026-04-18 09:05 | -17.91959 | 122.11522 | 1970 ft | 197 kts | 98° |
| 2026-04-18 09:06 | -17.92241 | 122.12901 | 1959 ft | 193 kts | 104° |
| 2026-04-18 09:06 | -17.92610 | 122.14235 | 1871 ft | 182 kts | 106° |
| 2026-04-18 09:06 | -17.92946 | 122.15439 | 1686 ft | 166 kts | 105° |
| 2026-04-18 09:06 | -17.93248 | 122.16579 | 1375 ft | 160 kts | 105° |
| 2026-04-18 09:07 | -17.93538 | 122.17691 | 1045 ft | 157 kts | 105° |
| 2026-04-18 09:07 | -17.93829 | 122.18783 | 731 ft | 153 kts | 105° |
| 2026-04-18 09:07 | -17.94114 | 122.19823 | 453 ft | 145 kts | 107° |
| 2026-04-18 09:07 | -17.94375 | 122.20805 | 221 ft | 135 kts | 105° |
| 2026-04-18 09:08 | -17.94615 | 122.21733 | 66 ft | 131 kts | 107° |
| 2026-04-18 09:08 | -17.94840 | 122.22566 | 47 ft | 98 kts | 105° |
| 2026-04-18 09:08 | -17.94978 | 122.23105 | 36 ft | 59 kts | 104° |
| 2026-04-18 09:08 | -17.95049 | 122.23362 | 31 ft | 20 kts | 121° |
| 2026-04-18 09:09 | -17.95141 | 122.23373 | 31 ft | 15 kts | 204° |
| 2026-04-18 09:09 | -17.95230 | 122.23314 | 32 ft | 15 kts | 211° |
| 2026-04-18 09:09 | -17.95314 | 122.23302 | 32 ft | 4 kts | 125° |
| 2026-04-18 09:09 | -17.95314 | 122.23315 | 32 ft | 0 kts | 73° |